Terminal Aerodrome Forecast
Issued by NWS

Home | Current Version | Previous Version | Graphics & Text | Print | Product List | Glossary Off
Versions: 1 2 3 4 5 6 7 8 9 10 11 12 13 14 15 16 17 18 19

000
FTUS43 KBIS 301700
TAFMOT
TAF
KMOT 301735Z 3018/3118 15010KT P6SM SCT070
     FM310300 14012KT P6SM -SHRA VCTS BKN050CB
      TEMPO 3104/3108 3SM TSRA SCT015 BKN035CB
     FM310900 30007KT P6SM BKN015
     FM311600 30011KT P6SM SCT015 BKN070=

USA.gov is the U.S. government's official web portal to all federal, state and local government web resources and services.